createdAt,value
2023-04-04T00:02:01.090Z,4.07
2023-04-04T00:04:46.271Z,4.40
2023-04-04T00:07:31.407Z,4.90
2023-04-04T00:10:16.432Z,4.45
2023-04-04T00:15:46.269Z,3.80
2023-04-04T00:18:32.013Z,3.97
2023-04-04T00:21:16.600Z,4.45
2023-04-04T00:26:45.838Z,3.65
2023-04-04T00:29:30.743Z,3.60
2023-04-04T00:32:15.964Z,4.00
2023-04-04T00:35:00.980Z,4.05
2023-04-04T00:37:45.452Z,4.00
2023-04-04T00:43:15.834Z,3.22
2023-04-04T00:46:00.588Z,3.97
2023-04-04T00:48:46.230Z,3.85
2023-04-04T00:51:30.870Z,4.88
2023-04-04T00:54:16.145Z,3.70
2023-04-04T00:57:01.351Z,4.25
2023-04-04T00:59:46.558Z,3.95
2023-04-04T01:02:31.492Z,3.83
2023-04-04T01:05:16.471Z,3.80
2023-04-04T01:08:01.679Z,3.75
2023-04-04T01:10:46.923Z,3.60
2023-04-04T01:13:32.075Z,3.78
2023-04-04T01:16:17.310Z,4.38
2023-04-04T01:19:05.989Z,4.53
2023-04-04T01:21:53.079Z,4.90
2023-04-04T01:24:41.554Z,4.60
2023-04-04T01:27:26.058Z,4.20
2023-04-04T01:30:16.856Z,4.00
2023-04-04T01:33:27.588Z,4.47
2023-04-04T01:36:42.354Z,3.58
2023-04-04T01:39:49.810Z,4.65
2023-04-04T01:42:36.095Z,4.30
2023-04-04T01:45:22.357Z,4.20
2023-04-04T01:48:10.427Z,3.65
2023-04-04T01:50:56.481Z,4.60
2023-04-04T01:53:43.139Z,3.92
2023-04-04T01:56:28.252Z,4.10
2023-04-04T01:59:13.232Z,3.80
2023-04-04T02:01:58.317Z,3.78
2023-04-04T02:07:28.251Z,4.28
2023-04-04T02:12:58.606Z,4.10
2023-04-04T02:18:28.981Z,3.70
2023-04-04T02:21:14.106Z,3.67
2023-04-04T02:26:43.689Z,3.70
2023-04-04T02:32:13.077Z,3.63
2023-04-04T02:37:46.831Z,3.58
2023-04-04T02:40:39.059Z,3.92
2023-04-04T02:43:24.194Z,3.55
2023-04-04T02:46:21.128Z,4.28
2023-04-04T02:49:10.184Z,4.90
2023-04-04T02:51:58.014Z,3.80
2023-04-04T02:54:47.285Z,3.83
2023-04-04T02:57:50.029Z,3.88
2023-04-04T03:00:35.169Z,4.10
2023-04-04T03:03:20.589Z,3.67
2023-04-04T03:06:05.940Z,4.00
2023-04-04T03:08:51.023Z,3.58
2023-04-04T03:14:21.426Z,3.60
2023-04-04T03:17:08.760Z,3.75
2023-04-04T03:19:53.313Z,3.92
2023-04-04T03:25:23.462Z,3.42
2023-04-04T03:30:54.381Z,3.55
2023-04-04T03:36:26.940Z,3.20
2023-04-04T03:39:12.283Z,3.13
2023-04-04T03:41:59.821Z,3.30
2023-04-04T03:44:44.475Z,3.33
2023-04-04T03:47:36.380Z,3.10
2023-04-04T03:50:21.252Z,3.63
2023-04-04T03:53:11.892Z,3.45
2023-04-04T03:55:57.367Z,3.25
2023-04-04T04:01:30.460Z,3.13
2023-04-04T04:04:15.454Z,3.42
2023-04-04T04:09:46.396Z,3.60
2023-04-04T04:12:31.387Z,3.20
2023-04-04T04:15:16.445Z,3.50
2023-04-04T04:18:02.747Z,3.42
2023-04-04T04:20:47.785Z,3.42
2023-04-04T04:23:32.364Z,4.18
2023-04-04T04:29:02.488Z,3.75
2023-04-04T04:31:52.300Z,3.95
2023-04-04T04:34:38.293Z,3.60
2023-04-04T04:40:13.708Z,3.47
2023-04-04T04:43:00.841Z,3.90
2023-04-04T04:48:30.804Z,3.92
2023-04-04T04:51:17.742Z,3.72
2023-04-04T04:54:07.566Z,4.05
2023-04-04T04:56:52.626Z,4.18
2023-04-04T04:59:38.207Z,4.03
2023-04-04T05:02:23.825Z,3.78
2023-04-04T05:05:09.015Z,3.97
2023-04-04T05:07:54.985Z,3.53
2023-04-04T05:10:40.177Z,3.67
2023-04-04T05:13:26.241Z,4.13
2023-04-04T05:16:11.450Z,4.05
2023-04-04T05:18:56.663Z,3.78
2023-04-04T05:21:41.807Z,4.13
2023-04-04T05:24:29.864Z,3.70
2023-04-04T05:27:16.298Z,3.30
2023-04-04T05:30:07.220Z,4.10
2023-04-04T05:33:02.778Z,3.90
2023-04-04T05:35:49.109Z,3.47
2023-04-04T05:38:35.524Z,3.45
2023-04-04T05:41:21.489Z,4.22
2023-04-04T05:44:07.929Z,3.88
2023-04-04T05:49:38.429Z,3.38
2023-04-04T05:55:09.327Z,2.80
2023-04-04T05:57:54.388Z,3.20
2023-04-04T06:00:48.284Z,3.58
2023-04-04T06:06:18.845Z,3.45
2023-04-04T06:09:04.278Z,3.13
2023-04-04T06:11:50.003Z,3.20
2023-04-04T06:14:36.184Z,2.85
2023-04-04T06:17:24.324Z,3.00
2023-04-04T06:20:09.911Z,3.45
2023-04-04T06:22:54.981Z,3.40
2023-04-04T06:25:39.953Z,3.15
2023-04-04T06:28:25.256Z,3.20
2023-04-04T06:31:10.573Z,3.05
2023-04-04T06:36:42.072Z,3.38
2023-04-04T06:42:15.022Z,2.72
2023-04-04T06:45:06.022Z,3.92
2023-04-04T06:47:53.890Z,3.97
2023-04-04T06:50:38.889Z,3.42
2023-04-04T06:53:29.266Z,3.63
2023-04-04T06:56:14.116Z,3.88
2023-04-04T06:58:59.097Z,3.95
2023-04-04T07:04:34.082Z,3.58
2023-04-04T07:07:18.432Z,3.17
2023-04-04T07:10:03.398Z,3.50
2023-04-04T07:15:32.535Z,3.28
2023-04-04T07:18:17.731Z,3.45
2023-04-04T07:21:02.729Z,2.92
2023-04-04T07:23:47.827Z,3.20
2023-04-04T07:26:33.431Z,3.10
2023-04-04T07:29:18.290Z,3.78
2023-04-04T07:32:03.105Z,3.20
2023-04-04T07:37:36.656Z,2.90
2023-04-04T07:40:21.468Z,3.17
2023-04-04T07:43:06.743Z,2.70
2023-04-04T07:48:38.347Z,3.58
2023-04-04T07:51:28.819Z,3.67
2023-04-04T07:54:13.426Z,3.55
2023-04-04T07:59:44.084Z,3.10
2023-04-04T08:02:28.913Z,3.03
2023-04-04T08:05:14.030Z,3.13
2023-04-04T08:07:58.774Z,3.67
2023-04-04T08:10:48.590Z,3.55
2023-04-04T08:13:33.420Z,3.40
2023-04-04T08:16:19.580Z,3.58
2023-04-04T08:19:04.921Z,3.50
2023-04-04T08:21:50.883Z,3.05
2023-04-04T08:24:36.203Z,3.20
2023-04-04T08:27:21.215Z,3.00
2023-04-04T08:30:06.734Z,2.90
2023-04-04T08:32:51.369Z,3.50
2023-04-04T08:38:21.220Z,2.55
2023-04-04T08:43:54.113Z,2.33
2023-04-04T08:46:39.225Z,2.70
2023-04-04T08:52:12.197Z,2.63
2023-04-04T08:54:58.073Z,2.67
2023-04-04T08:57:42.904Z,3.70
2023-04-04T09:00:27.857Z,3.58
2023-04-04T09:03:34.464Z,3.08
2023-04-04T09:06:20.346Z,2.80
2023-04-04T09:09:06.128Z,2.47
2023-04-04T09:11:52.210Z,2.80
2023-04-04T09:14:39.215Z,2.83
2023-04-04T09:17:23.965Z,3.03
2023-04-04T09:20:38.274Z,3.17
2023-04-04T09:23:24.347Z,2.78
2023-04-04T09:26:09.006Z,3.13
2023-04-04T09:28:55.052Z,3.03
2023-04-04T09:31:40.941Z,3.65
2023-04-04T09:34:28.000Z,3.72
2023-04-04T09:37:17.038Z,2.97
2023-04-04T09:40:04.237Z,3.65
2023-04-04T09:42:49.927Z,3.85
2023-04-04T09:48:47.598Z,3.55
2023-04-04T09:51:36.679Z,3.20
2023-04-04T09:54:28.758Z,3.00
2023-04-04T09:57:15.075Z,2.90
2023-04-04T10:00:01.659Z,3.10
2023-04-04T10:02:47.639Z,3.35
2023-04-04T10:05:32.980Z,2.88
2023-04-04T10:08:21.441Z,3.05
2023-04-04T10:11:11.856Z,2.80
2023-04-04T10:13:57.925Z,2.80
2023-04-04T10:16:45.210Z,3.22
2023-04-04T10:19:30.543Z,3.00
2023-04-04T10:22:16.522Z,3.80
2023-04-04T10:25:02.294Z,3.53
2023-04-04T10:27:47.171Z,3.05
2023-04-04T10:30:40.532Z,3.20
2023-04-04T10:33:43.622Z,3.13
2023-04-04T10:36:32.163Z,3.42
2023-04-04T10:39:51.442Z,2.80
2023-04-04T10:42:43.649Z,2.92
2023-04-04T10:45:31.578Z,2.70
2023-04-04T10:48:16.551Z,2.72
2023-04-04T10:51:02.098Z,3.60
2023-04-04T10:53:47.062Z,3.20
2023-04-04T10:56:31.837Z,3.22
2023-04-04T10:59:19.496Z,2.78
2023-04-04T11:02:06.224Z,3.00
2023-04-04T11:04:50.822Z,2.67
2023-04-04T11:07:36.304Z,3.63
2023-04-04T11:10:24.158Z,3.00
2023-04-04T11:13:13.221Z,3.05
2023-04-04T11:16:20.950Z,2.70
2023-04-04T11:19:05.832Z,3.22
2023-04-04T11:21:50.609Z,3.47
2023-04-04T11:24:42.370Z,3.15
2023-04-04T11:27:29.937Z,3.40
2023-04-04T11:30:14.740Z,3.42
2023-04-04T11:33:07.479Z,2.72
2023-04-04T11:35:58.204Z,2.95
2023-04-04T11:38:49.192Z,2.97
2023-04-04T11:41:44.488Z,2.97
2023-04-04T11:44:31.219Z,3.13
2023-04-04T11:47:22.358Z,2.88
2023-04-04T11:50:10.019Z,3.05
2023-04-04T11:52:55.778Z,3.08
2023-04-04T11:55:47.424Z,2.95
2023-04-04T11:58:34.765Z,3.03
2023-04-04T12:01:20.010Z,2.58
2023-04-04T12:04:04.787Z,2.72
2023-04-04T12:06:54.426Z,3.03
2023-04-04T12:09:40.061Z,2.78
2023-04-04T12:12:26.996Z,3.33
2023-04-04T12:15:17.779Z,2.97
2023-04-04T12:20:51.364Z,2.72
2023-04-04T12:23:36.327Z,3.00
2023-04-04T12:26:21.264Z,2.80
2023-04-04T12:29:08.868Z,2.80
2023-04-04T12:31:55.646Z,2.67
2023-04-04T12:34:49.044Z,2.92
2023-04-04T12:37:36.258Z,3.22
2023-04-04T12:40:21.143Z,3.15
2023-04-04T12:43:08.032Z,3.30
2023-04-04T12:45:54.450Z,2.88
2023-04-04T12:48:39.386Z,2.80
2023-04-04T12:51:32.147Z,3.17
2023-04-04T12:54:29.034Z,2.78
2023-04-04T12:57:19.898Z,3.08
2023-04-04T13:00:07.841Z,3.30
2023-04-04T13:02:52.613Z,3.30
2023-04-04T13:08:23.298Z,2.95
2023-04-04T13:11:08.312Z,2.88
2023-04-04T13:17:09.828Z,3.33
2023-04-04T13:19:54.369Z,3.13
2023-04-04T13:22:40.799Z,3.33
2023-04-04T13:25:26.062Z,2.97
2023-04-04T13:28:11.160Z,2.83
2023-04-04T13:30:56.138Z,3.28
2023-04-04T13:33:41.688Z,3.20
2023-04-04T13:36:27.752Z,3.35
2023-04-04T13:39:12.529Z,3.50
2023-04-04T13:41:57.646Z,3.25
2023-04-04T13:44:42.677Z,3.90
2023-04-04T13:50:13.099Z,2.78
2023-04-04T13:52:58.449Z,3.17
2023-04-04T13:55:57.382Z,3.40
2023-04-04T13:58:49.549Z,3.53
2023-04-04T14:01:34.254Z,2.92
2023-04-04T14:07:09.913Z,2.90
2023-04-04T14:09:54.558Z,2.97
2023-04-04T14:12:40.054Z,2.75
2023-04-04T14:15:24.967Z,2.63
2023-04-04T14:18:11.584Z,2.92
2023-04-04T14:20:56.580Z,2.90
2023-04-04T14:23:41.572Z,3.30
2023-04-04T14:26:26.681Z,2.75
2023-04-04T14:31:56.417Z,3.15
2023-04-04T14:37:25.802Z,3.03
2023-04-04T14:40:11.901Z,3.03
2023-04-04T14:42:56.616Z,2.78
2023-04-04T14:45:41.273Z,3.05
2023-04-04T14:48:26.364Z,2.85
2023-04-04T14:51:11.188Z,2.97
2023-04-04T14:56:42.435Z,3.13
2023-04-04T14:59:27.597Z,3.05
2023-04-04T15:02:12.638Z,3.08
2023-04-04T15:04:57.804Z,3.50
2023-04-04T15:10:29.676Z,3.17
2023-04-04T15:13:14.370Z,2.75
2023-04-04T15:18:45.628Z,2.53
2023-04-04T15:21:31.217Z,2.67
2023-04-04T15:24:16.090Z,2.83
2023-04-04T15:27:00.980Z,2.75
2023-04-04T15:29:45.886Z,2.83
2023-04-04T15:32:30.876Z,2.85
2023-04-04T15:35:18.381Z,2.90
2023-04-04T15:38:03.379Z,3.00
2023-04-04T15:43:33.035Z,2.40
2023-04-04T15:46:17.985Z,3.20
2023-04-04T15:49:03.551Z,3.10
2023-04-04T15:51:49.029Z,3.05
2023-04-04T15:54:33.904Z,3.30
2023-04-04T15:57:18.879Z,3.20
2023-04-04T16:00:04.708Z,3.13
2023-04-04T16:02:52.589Z,2.70
2023-04-04T16:05:37.472Z,2.60
2023-04-04T16:08:22.396Z,3.05
2023-04-04T16:11:07.631Z,3.20
2023-04-04T16:13:52.491Z,2.92
2023-04-04T16:16:39.023Z,3.08
2023-04-04T16:19:24.032Z,3.53
2023-04-04T16:24:54.043Z,2.60
2023-04-04T16:30:24.130Z,3.03
2023-04-04T16:35:53.955Z,3.03
2023-04-04T16:38:38.827Z,3.30
2023-04-04T16:41:23.764Z,3.00
2023-04-04T16:44:08.834Z,2.90
2023-04-04T16:46:53.835Z,2.80
2023-04-04T16:49:39.264Z,2.58
2023-04-04T16:52:23.929Z,2.90
2023-04-04T16:55:09.105Z,2.50
2023-04-04T16:57:53.938Z,2.80
2023-04-04T17:00:39.775Z,2.80
2023-04-04T17:03:25.068Z,2.83
2023-04-04T17:06:10.017Z,2.83
2023-04-04T17:08:55.041Z,2.63
2023-04-04T17:11:44.031Z,2.90
2023-04-04T17:14:29.134Z,2.60
2023-04-04T17:17:14.130Z,2.75
2023-04-04T17:22:44.256Z,3.35
2023-04-04T17:25:30.280Z,3.03
2023-04-04T17:28:15.014Z,2.70
2023-04-04T17:30:59.986Z,3.45
2023-04-04T17:33:45.229Z,2.85
2023-04-04T17:36:31.898Z,3.28
2023-04-04T17:39:17.107Z,2.53
2023-04-04T17:42:02.090Z,2.95
2023-04-04T17:44:47.030Z,2.50
2023-04-04T17:47:32.478Z,2.83
2023-04-04T17:50:17.705Z,3.10
2023-04-04T17:53:02.666Z,2.78
2023-04-04T17:55:47.695Z,2.80
2023-04-04T18:01:17.205Z,2.63
2023-04-04T18:04:02.496Z,2.85
2023-04-04T18:06:47.684Z,3.42
2023-04-04T18:09:32.704Z,3.28
2023-04-04T18:12:17.874Z,2.63
2023-04-04T18:15:03.562Z,3.50
2023-04-04T18:17:48.346Z,3.05
2023-04-04T18:20:35.531Z,3.10
2023-04-04T18:23:21.060Z,3.80
2023-04-04T18:26:06.344Z,3.90
2023-04-04T18:28:50.975Z,3.50
2023-04-04T18:31:35.891Z,3.50
2023-04-04T18:34:21.178Z,2.88
2023-04-04T18:37:06.136Z,3.20
2023-04-04T18:39:51.373Z,2.90
2023-04-04T18:42:36.597Z,3.70
2023-04-04T18:45:29.848Z,3.53
2023-04-04T18:48:19.037Z,3.28
2023-04-04T18:51:04.258Z,4.03
2023-04-04T18:53:49.145Z,4.10
2023-04-04T18:56:34.345Z,3.70
2023-04-04T18:59:21.942Z,3.67
2023-04-04T19:02:06.653Z,4.28
2023-04-04T19:04:54.536Z,3.80
2023-04-04T19:07:41.438Z,4.22
2023-04-04T19:10:26.816Z,3.97
2023-04-04T19:13:11.850Z,3.78
2023-04-04T19:15:57.004Z,3.80
2023-04-04T19:18:43.056Z,3.58
2023-04-04T19:21:27.921Z,3.85
2023-04-04T19:26:57.904Z,3.47
2023-04-04T19:32:27.777Z,3.03
2023-04-04T19:35:53.897Z,3.58
2023-04-04T19:38:41.691Z,3.97
2023-04-04T19:41:38.110Z,3.63
2023-04-04T19:44:22.989Z,4.00
2023-04-04T19:49:56.697Z,3.33
2023-04-04T19:52:41.584Z,3.47
2023-04-04T19:58:22.873Z,3.22
2023-04-04T20:01:09.358Z,3.80
2023-04-04T20:03:55.371Z,3.85
2023-04-04T20:06:40.904Z,3.58
2023-04-04T20:09:28.449Z,3.97
2023-04-04T20:12:14.990Z,4.00
2023-04-04T20:14:59.388Z,4.03
2023-04-04T20:20:49.578Z,3.40
2023-04-04T20:23:42.737Z,3.60
2023-04-04T20:26:59.149Z,3.75
2023-04-04T20:32:28.761Z,3.83
2023-04-04T20:38:18.696Z,3.90
2023-04-04T20:41:13.483Z,4.35
2023-04-04T20:43:59.100Z,4.10
2023-04-04T20:46:43.879Z,3.65
2023-04-04T20:49:28.839Z,3.78
2023-04-04T20:52:22.323Z,3.85
2023-04-04T20:55:07.884Z,3.60
2023-04-04T20:57:54.722Z,3.95
2023-04-04T21:00:41.672Z,3.30
2023-04-04T21:03:34.681Z,3.67
2023-04-04T21:06:27.550Z,3.65
2023-04-04T21:09:12.183Z,3.60
2023-04-04T21:14:46.165Z,3.63
2023-04-04T21:20:36.453Z,3.05
2023-04-04T21:23:33.883Z,3.22
2023-04-04T21:26:25.378Z,3.05
2023-04-04T21:29:23.960Z,3.70
2023-04-04T21:32:09.153Z,3.95
2023-04-04T21:34:53.817Z,3.75
2023-04-04T21:37:38.720Z,3.58
2023-04-04T21:43:08.027Z,3.38
2023-04-04T21:45:56.051Z,3.80
2023-04-04T21:48:41.217Z,3.67
2023-04-04T21:51:26.713Z,3.67
2023-04-04T21:54:11.428Z,3.78
2023-04-04T21:56:56.366Z,4.07
2023-04-04T21:59:40.984Z,3.50
2023-04-04T22:02:25.729Z,3.28
2023-04-04T22:05:10.298Z,3.40
2023-04-04T22:10:44.811Z,3.38
2023-04-04T22:13:32.534Z,3.60
2023-04-04T22:16:19.486Z,3.63
2023-04-04T22:19:04.843Z,3.88
2023-04-04T22:24:34.173Z,3.85
2023-04-04T22:30:05.348Z,3.70
2023-04-04T22:32:50.441Z,3.70
2023-04-04T22:38:20.863Z,3.75
2023-04-04T22:41:05.687Z,3.70
2023-04-04T22:43:50.636Z,3.70
2023-04-04T22:46:36.312Z,3.78
2023-04-04T22:49:21.678Z,3.70
2023-04-04T22:52:06.924Z,3.80
2023-04-04T22:54:52.652Z,3.58
2023-04-04T22:57:37.562Z,3.50
2023-04-04T23:03:07.383Z,3.25
2023-04-04T23:05:52.270Z,4.00
2023-04-04T23:11:22.303Z,4.18
2023-04-04T23:14:14.376Z,3.83
2023-04-04T23:16:58.890Z,3.92
2023-04-04T23:19:44.162Z,4.00
2023-04-04T23:22:28.976Z,3.80
2023-04-04T23:25:14.005Z,3.55
2023-04-04T23:30:43.453Z,4.05
2023-04-04T23:33:27.941Z,3.30
2023-04-04T23:36:14.768Z,3.78
2023-04-04T23:38:59.517Z,3.88
2023-04-04T23:44:28.837Z,3.75
2023-04-04T23:47:13.710Z,3.70
2023-04-04T23:49:58.765Z,3.95
2023-04-04T23:52:43.559Z,4.00
2023-04-04T23:55:28.544Z,4.03
2023-04-04T23:58:14.026Z,3.80
